Wetterdaten: Woche 23.09.13 - 29.09.13 (KW39)
Datum Zeit Temp. A. Feuchte A. Luftdruck Regen Wind Richtung Taupunkt Windchill Windben
23.09.2013 00:00 15,3 C 90 % 1022,9 hPa 0,0 l/m 5,7 km/h (2 Bft) W-SW 13,6 C 15,2 C 16,1 km/h (3 Bft)
23.09.2013 01:00 15,2 C 89 % 1022,7 hPa 0,0 l/m 5,1 km/h (1 Bft) W-SW 13,4 C 15,2 C 12,8 km/h (3 Bft)
23.09.2013 02:00 15,1 C 89 % 1022,5 hPa 0,0 l/m 5,6 km/h (2 Bft) S-SW 13,3 C 15,1 C 13,8 km/h (3 Bft)
23.09.2013 03:00 15,0 C 89 % 1022,5 hPa 0,0 l/m 5,4 km/h (1 Bft) W 13,3 C 15,0 C 14,9 km/h (3 Bft)
23.09.2013 04:00 14,9 C 90 % 1022,2 hPa 0,0 l/m 4,6 km/h (1 Bft) W-SW 13,3 C 14,9 C 12,2 km/h (2 Bft)
23.09.2013 05:00 15,0 C 90 % 1022,0 hPa 0,0 l/m 4,3 km/h (1 Bft) W-SW 13,3 C 15,0 C 11,0 km/h (2 Bft)
23.09.2013 06:00 14,9 C 90 % 1022,0 hPa 0,0 l/m 4,3 km/h (1 Bft) W-SW 13,3 C 14,9 C 12,4 km/h (2 Bft)
23.09.2013 07:00 14,9 C 90 % 1022,1 hPa 0,0 l/m 3,8 km/h (1 Bft) SW 13,2 C 14,9 C 10,3 km/h (2 Bft)
23.09.2013 08:00 15,0 C 90 % 1022,5 hPa 0,0 l/m 3,5 km/h (1 Bft) W 13,4 C 15,0 C 9,0 km/h (2 Bft)
23.09.2013 09:00 15,3 C 90 % 1022,7 hPa 0,0 l/m 4,3 km/h (1 Bft) W-NW 13,6 C 15,3 C 11,0 km/h (2 Bft)
23.09.2013 10:00 15,6 C 89 % 1022,8 hPa 0,0 l/m 4,7 km/h (1 Bft) N-NW 13,8 C 15,6 C 11,4 km/h (2 Bft)
23.09.2013 11:00 16,4 C 86 % 1022,7 hPa 0,0 l/m 5,3 km/h (1 Bft) W-NW 14,1 C 16,4 C 13,7 km/h (3 Bft)
23.09.2013 12:00 16,6 C 86 % 1022,5 hPa 0,0 l/m 5,1 km/h (1 Bft) W-SW 14,2 C 16,5 C 12,1 km/h (2 Bft)
23.09.2013 13:00 16,8 C 86 % 1022,3 hPa 0,0 l/m 5,1 km/h (1 Bft) W 14,3 C 16,8 C 14,1 km/h (3 Bft)
23.09.2013 14:00 16,9 C 85 % 1021,8 hPa 0,0 l/m 6,2 km/h (2 Bft) W-NW 14,4 C 16,6 C 15,4 km/h (3 Bft)
23.09.2013 15:00 16,6 C 87 % 1021,4 hPa 0,0 l/m 5,3 km/h (1 Bft) W 14,4 C 16,5 C 12,8 km/h (3 Bft)
23.09.2013 16:00 16,7 C 86 % 1020,8 hPa 0,0 l/m 4,5 km/h (1 Bft) W-NW 14,4 C 16,7 C 12,3 km/h (2 Bft)
23.09.2013 17:00 16,7 C 86 % 1020,5 hPa 0,0 l/m 4,0 km/h (1 Bft) W-SW 14,3 C 16,7 C 11,2 km/h (2 Bft)
23.09.2013 18:00 16,5 C 87 % 1020,2 hPa 0,0 l/m 3,0 km/h (1 Bft) W-NW 14,2 C 16,5 C 8,3 km/h (2 Bft)
23.09.2013 19:00 16,2 C 87 % 1020,1 hPa 0,0 l/m 2,8 km/h (1 Bft) W-NW 14,1 C 16,2 C 8,0 km/h (2 Bft)
23.09.2013 20:00 15,8 C 88 % 1020,1 hPa 0,0 l/m 1,7 km/h (1 Bft) W-SW 13,9 C 15,8 C 5,5 km/h (2 Bft)
23.09.2013 21:00 15,3 C 89 % 1020,0 hPa 0,0 l/m 2,1 km/h (1 Bft) W 13,5 C 15,3 C 6,4 km/h (2 Bft)
23.09.2013 22:00 14,9 C 89 % 1019,8 hPa 0,0 l/m 2,8 km/h (1 Bft) W-SW 13,1 C 14,9 C 8,0 km/h (2 Bft)
23.09.2013 23:00 14,9 C 89 % 1019,7 hPa 0,0 l/m 3,4 km/h (1 Bft) W 13,1 C 14,9 C 9,0 km/h (2 Bft)
24.09.2013 00:00 14,5 C 90 % 1019,4 hPa 0,0 l/m 2,9 km/h (1 Bft) W-NW 12,9 C 14,5 C 8,6 km/h (2 Bft)
24.09.2013 01:00 14,3 C 90 % 1018,9 hPa 0,0 l/m 2,4 km/h (1 Bft) SW 12,6 C 14,3 C 7,1 km/h (2 Bft)
24.09.2013 02:00 14,1 C 91 % 1018,5 hPa 0,0 l/m 2,7 km/h (1 Bft) W 12,7 C 14,1 C 6,8 km/h (2 Bft)
24.09.2013 03:00 13,8 C 92 % 1018,1 hPa 0,0 l/m 1,4 km/h (1 Bft) W-NW 12,5 C 13,8 C 4,7 km/h (1 Bft)
24.09.2013 04:00 13,7 C 92 % 1017,6 hPa 0,0 l/m 2,2 km/h (1 Bft) W 12,5 C 13,7 C 6,3 km/h (2 Bft)
24.09.2013 05:00 13,5 C 92 % 1017,3 hPa 0,0 l/m 2,2 km/h (1 Bft) W-SW 12,3 C 13,5 C 6,3 km/h (2 Bft)
24.09.2013 06:00 13,5 C 93 % 1017,0 hPa 0,0 l/m 2,6 km/h (1 Bft) W 12,4 C 13,5 C 7,5 km/h (2 Bft)
24.09.2013 07:00 13,4 C 93 % 1016,8 hPa 0,0 l/m 2,3 km/h (1 Bft) W 12,3 C 13,4 C 6,4 km/h (2 Bft)
24.09.2013 08:00 13,5 C 93 % 1016,8 hPa 0,0 l/m 1,5 km/h (1 Bft) W-SW 12,4 C 13,5 C 6,0 km/h (2 Bft)
24.09.2013 09:00 13,7 C 93 % 1016,8 hPa 0,0 l/m 2,7 km/h (1 Bft) S-SW 12,5 C 13,7 C 7,8 km/h (2 Bft)
24.09.2013 10:00 13,6 C 92 % 1016,7 hPa 0,0 l/m 2,8 km/h (1 Bft) W-SW 12,4 C 13,6 C 8,0 km/h (2 Bft)
24.09.2013 11:00 14,3 C 90 % 1016,4 hPa 0,0 l/m 3,5 km/h (1 Bft) W-SW 12,8 C 14,3 C 9,9 km/h (2 Bft)
24.09.2013 12:00 14,9 C 88 % 1016,1 hPa 0,0 l/m 3,9 km/h (1 Bft) W-SW 13,0 C 14,9 C 9,8 km/h (2 Bft)
24.09.2013 13:00 15,9 C 85 % 1015,6 hPa 0,0 l/m 4,1 km/h (1 Bft) W 13,4 C 15,9 C 10,3 km/h (2 Bft)
24.09.2013 14:00 16,7 C 82 % 1015,3 hPa 0,0 l/m 5,1 km/h (1 Bft) NW 13,5 C 16,7 C 11,3 km/h (2 Bft)
24.09.2013 15:00 16,7 C 83 % 1015,1 hPa 0,0 l/m 2,8 km/h (1 Bft) W 13,8 C 16,7 C 7,6 km/h (2 Bft)
24.09.2013 16:00 16,9 C 81 % 1014,7 hPa 0,0 l/m 4,1 km/h (1 Bft) W 13,7 C 16,9 C 10,6 km/h (2 Bft)
24.09.2013 17:00 16,2 C 84 % 1014,6 hPa 0,0 l/m 2,3 km/h (1 Bft) W 13,4 C 16,2 C 6,0 km/h (2 Bft)
24.09.2013 18:00 15,5 C 87 % 1014,6 hPa 0,0 l/m 2,7 km/h (1 Bft) W 13,3 C 15,5 C 7,4 km/h (2 Bft)
24.09.2013 19:00 14,5 C 92 % 1014,9 hPa 0,8 l/m 2,8 km/h (1 Bft) NW 13,1 C 14,5 C 6,4 km/h (2 Bft)
24.09.2013 20:00 13,8 C 94 % 1015,1 hPa 0,0 l/m 0,5 km/h (0 Bft) W-NW 12,8 C 13,8 C 1,7 km/h (1 Bft)
24.09.2013 21:00 13,5 C 94 % 1015,4 hPa 0,0 l/m 0,0 km/h (0 Bft) N 12,6 C 13,5 C 0,0 km/h (0 Bft)
24.09.2013 22:00 13,0 C 94 % 1015,4 hPa 0,0 l/m 0,0 km/h (0 Bft) N 12,1 C 13,0 C 0,0 km/h (0 Bft)
24.09.2013 23:00 11,9 C 94 % 1015,3 hPa 0,2 l/m 0,0 km/h (0 Bft) N 10,9 C 11,9 C 0,0 km/h (0 Bft)
25.09.2013 00:00 10,5 C 95 % 1015,4 hPa 0,0 l/m 0,0 km/h (0 Bft) N 9,7 C 10,5 C 0,0 km/h (0 Bft)
25.09.2013 01:00 9,4 C 95 % 1015,6 hPa 0,0 l/m 0,0 km/h (0 Bft) N 8,6 C 9,4 C 0,0 km/h (0 Bft)
25.09.2013 02:00 10,4 C 96 % 1015,4 hPa 0,0 l/m 0,1 km/h (0 Bft) N-NO 9,8 C 10,4 C 0,7 km/h (0 Bft)
25.09.2013 03:00 10,8 C 95 % 1015,3 hPa 0,0 l/m 0,0 km/h (0 Bft) N 10,1 C 10,8 C 0,9 km/h (0 Bft)
25.09.2013 04:00 10,5 C 95 % 1014,9 hPa 0,0 l/m 1,2 km/h (1 Bft) O 9,8 C 10,5 C 3,7 km/h (1 Bft)
25.09.2013 05:00 10,1 C 95 % 1014,4 hPa 0,0 l/m 1,9 km/h (1 Bft) O 9,4 C 10,1 C 4,9 km/h (1 Bft)
25.09.2013 06:00 10,0 C 95 % 1014,5 hPa 0,0 l/m 0,1 km/h (0 Bft) O 9,2 C 10,0 C 1,5 km/h (1 Bft)
25.09.2013 07:00 10,1 C 95 % 1014,4 hPa 0,0 l/m 2,1 km/h (1 Bft) O 9,4 C 10,1 C 6,0 km/h (2 Bft)
25.09.2013 08:00 10,3 C 95 % 1014,2 hPa 0,0 l/m 2,8 km/h (1 Bft) O 9,6 C 10,3 C 6,7 km/h (2 Bft)
25.09.2013 09:00 10,7 C 95 % 1014,0 hPa 0,0 l/m 2,9 km/h (1 Bft) O-SO 9,9 C 10,7 C 6,9 km/h (2 Bft)
25.09.2013 10:00 11,0 C 95 % 1013,8 hPa 0,0 l/m 2,8 km/h (1 Bft) O-SO 10,2 C 11,0 C 7,4 km/h (2 Bft)
25.09.2013 11:00 11,4 C 95 % 1013,9 hPa 0,0 l/m 3,3 km/h (1 Bft) O 10,6 C 11,4 C 7,4 km/h (2 Bft)
25.09.2013 12:00 11,9 C 93 % 1013,6 hPa 0,0 l/m 3,7 km/h (1 Bft) O 10,9 C 11,9 C 8,6 km/h (2 Bft)
25.09.2013 13:00 12,3 C 92 % 1013,4 hPa 0,2 l/m 4,0 km/h (1 Bft) O 11,0 C 12,3 C 8,2 km/h (2 Bft)
25.09.2013 14:00 12,4 C 92 % 1012,5 hPa 0,0 l/m 6,4 km/h (2 Bft) O 11,2 C 12,3 C 12,8 km/h (3 Bft)
25.09.2013 15:00 12,3 C 92 % 1012,1 hPa 0,0 l/m 4,8 km/h (1 Bft) O 11,0 C 12,3 C 10,6 km/h (2 Bft)
25.09.2013 16:00 12,5 C 92 % 1011,6 hPa 0,0 l/m 4,0 km/h (1 Bft) O 11,1 C 12,5 C 9,5 km/h (2 Bft)
25.09.2013 17:00 12,3 C 91 % 1011,0 hPa 0,0 l/m 4,0 km/h (1 Bft) O-SO 10,8 C 12,3 C 10,3 km/h (2 Bft)
25.09.2013 18:00 11,9 C 91 % 1010,4 hPa 0,0 l/m 3,6 km/h (1 Bft) O-SO 10,5 C 11,9 C 9,5 km/h (2 Bft)
25.09.2013 19:00 11,8 C 91 % 1010,2 hPa 0,0 l/m 3,2 km/h (1 Bft) O 10,5 C 11,8 C 8,0 km/h (2 Bft)
25.09.2013 20:00 11,7 C 92 % 1010,1 hPa 0,0 l/m 2,3 km/h (1 Bft) O 10,5 C 11,7 C 6,5 km/h (2 Bft)
25.09.2013 21:00 11,4 C 93 % 1009,7 hPa 0,4 l/m 2,3 km/h (1 Bft) O 10,4 C 11,4 C 5,9 km/h (2 Bft)
25.09.2013 22:00 11,2 C 94 % 1009,0 hPa 0,2 l/m 0,8 km/h (0 Bft) O-SO 10,3 C 11,2 C 3,6 km/h (1 Bft)
25.09.2013 23:00 11,1 C 94 % 1008,8 hPa 0,0 l/m 1,7 km/h (1 Bft) O-NO 10,2 C 11,1 C 3,6 km/h (1 Bft)
26.09.2013 00:00 10,8 C 95 % 1008,7 hPa 0,0 l/m 2,1 km/h (1 Bft) NO 10,0 C 10,8 C 5,3 km/h (1 Bft)
26.09.2013 01:00 10,2 C 95 % 1008,5 hPa 0,0 l/m 2,4 km/h (1 Bft) O 9,4 C 10,2 C 5,3 km/h (1 Bft)
26.09.2013 02:00 9,7 C 95 % 1008,3 hPa 0,0 l/m 0,8 km/h (0 Bft) O-NO 9,0 C 9,7 C 2,4 km/h (1 Bft)
26.09.2013 03:00 9,7 C 95 % 1008,0 hPa 0,0 l/m 0,7 km/h (0 Bft) N-NW 9,0 C 9,7 C 2,3 km/h (1 Bft)
26.09.2013 04:00 10,0 C 96 % 1007,8 hPa 0,0 l/m 0,0 km/h (0 Bft) N 9,4 C 10,0 C 0,0 km/h (0 Bft)
26.09.2013 05:00 10,8 C 96 % 1007,7 hPa 1,0 l/m 0,0 km/h (0 Bft) N 10,2 C 10,8 C 0,1 km/h (0 Bft)
26.09.2013 06:00 11,9 C 96 % 1007,8 hPa 3,0 l/m 0,7 km/h (0 Bft) W 11,3 C 11,9 C 2,8 km/h (1 Bft)
26.09.2013 07:00 12,2 C 96 % 1008,4 hPa 0,0 l/m 0,9 km/h (0 Bft) W 11,6 C 12,2 C 4,6 km/h (1 Bft)
26.09.2013 08:00 11,6 C 95 % 1009,7 hPa 0,0 l/m 10,6 km/h (2 Bft) N 10,7 C 8,7 C 18,6 km/h (3 Bft)
26.09.2013 09:00 10,2 C 93 % 1011,0 hPa 0,0 l/m 12,5 km/h (2 Bft) N-NO 9,1 C 6,5 C 19,3 km/h (3 Bft)
26.09.2013 10:00 9,0 C 94 % 1012,6 hPa 0,0 l/m 11,4 km/h (2 Bft) N-NO 8,1 C 5,7 C 18,1 km/h (3 Bft)
26.09.2013 11:00 9,5 C 92 % 1014,1 hPa 0,0 l/m 9,3 km/h (2 Bft) N-NO 8,3 C 7,6 C 16,0 km/h (3 Bft)
26.09.2013 12:00 9,8 C 90 % 1015,1 hPa 0,0 l/m 7,1 km/h (2 Bft) N-NO 8,3 C 9,2 C 13,7 km/h (3 Bft)
26.09.2013 13:00 10,6 C 87 % 1016,2 hPa 0,0 l/m 8,3 km/h (2 Bft) NO 8,5 C 9,3 C 14,6 km/h (3 Bft)
26.09.2013 14:00 10,9 C 86 % 1016,7 hPa 0,0 l/m 7,1 km/h (2 Bft) N-NO 8,6 C 10,3 C 12,9 km/h (3 Bft)
26.09.2013 15:00 11,6 C 83 % 1017,0 hPa 0,0 l/m 6,7 km/h (2 Bft) NO 8,7 C 11,0 C 12,6 km/h (3 Bft)
26.09.2013 16:00 12,1 C 79 % 1017,5 hPa 0,0 l/m 5,5 km/h (2 Bft) NO 8,7 C 12,0 C 9,8 km/h (2 Bft)
26.09.2013 17:00 12,0 C 79 % 1017,9 hPa 0,0 l/m 2,4 km/h (1 Bft) NO 8,4 C 12,0 C 5,2 km/h (1 Bft)
26.09.2013 18:00 10,8 C 84 % 1018,3 hPa 0,0 l/m 0,0 km/h (0 Bft) N 8,1 C 10,8 C 0,0 km/h (0 Bft)
26.09.2013 19:00 7,8 C 91 % 1018,8 hPa 0,0 l/m 0,0 km/h (0 Bft) N 6,4 C 7,8 C 0,0 km/h (0 Bft)
26.09.2013 20:00 6,0 C 93 % 1019,4 hPa 0,0 l/m 0,0 km/h (0 Bft) N 4,9 C 6,0 C 0,0 km/h (0 Bft)
26.09.2013 21:00 4,9 C 94 % 1019,9 hPa 0,0 l/m 0,0 km/h (0 Bft) N 4,1 C 4,9 C 0,0 km/h (0 Bft)
26.09.2013 22:00 4,1 C 95 % 1020,0 hPa 0,0 l/m 0,0 km/h (0 Bft) N 3,3 C 4,1 C 0,0 km/h (0 Bft)
26.09.2013 23:00 3,1 C 95 % 1020,1 hPa 0,0 l/m 0,0 km/h (0 Bft) N 2,3 C 3,1 C 0,0 km/h (0 Bft)
27.09.2013 00:00 2,2 C 95 % 1020,2 hPa 0,0 l/m 0,0 km/h (0 Bft) N 1,5 C 2,2 C 0,0 km/h (0 Bft)
27.09.2013 01:00 1,8 C 95 % 1020,2 hPa 0,2 l/m 0,0 km/h (0 Bft) N 1,0 C 1,8 C 0,0 km/h (0 Bft)
27.09.2013 02:00 1,5 C 96 % 1020,3 hPa 0,0 l/m 0,0 km/h (0 Bft) N 0,9 C 1,5 C 0,0 km/h (0 Bft)
27.09.2013 03:00 0,8 C 96 % 1020,1 hPa 0,0 l/m 0,0 km/h (0 Bft) N 0,2 C 0,8 C 0,0 km/h (0 Bft)
27.09.2013 04:00 0,4 C 96 % 1019,9 hPa 0,0 l/m 0,0 km/h (0 Bft) N -0,2 C 0,4 C 0,0 km/h (0 Bft)
27.09.2013 05:00 0,3 C 96 % 1019,9 hPa 0,0 l/m 0,0 km/h (0 Bft) N -0,3 C 0,3 C 0,0 km/h (0 Bft)
27.09.2013 06:00 -0,2 C 96 % 1020,0 hPa 0,0 l/m 0,0 km/h (0 Bft) N -0,8 C -0,2 C 0,0 km/h (0 Bft)
27.09.2013 07:00 -0,0 C 96 % 1020,2 hPa 0,0 l/m 0,0 km/h (0 Bft) N -0,6 C -0,0 C 0,0 km/h (0 Bft)
27.09.2013 08:00 1,2 C 96 % 1020,4 hPa 0,0 l/m 0,0 km/h (0 Bft) N 0,7 C 1,2 C 0,0 km/h (0 Bft)
27.09.2013 09:00 3,9 C 96 % 1020,4 hPa 0,0 l/m 0,1 km/h (0 Bft) S-SW 3,4 C 3,9 C 0,5 km/h (0 Bft)
27.09.2013 10:00 7,0 C 96 % 1020,4 hPa 0,0 l/m 1,5 km/h (1 Bft) S-SW 6,4 C 7,0 C 3,2 km/h (1 Bft)
27.09.2013 11:00 10,0 C 92 % 1020,0 hPa 0,0 l/m 3,6 km/h (1 Bft) S-SW 8,8 C 10,0 C 6,5 km/h (2 Bft)
27.09.2013 12:00 13,1 C 76 % 1019,7 hPa 0,0 l/m 3,4 km/h (1 Bft) S-SW 8,8 C 13,1 C 7,8 km/h (2 Bft)
27.09.2013 13:00 14,3 C 65 % 1019,4 hPa 0,0 l/m 2,9 km/h (1 Bft) SW 7,8 C 14,3 C 7,6 km/h (2 Bft)
27.09.2013 14:00 15,2 C 63 % 1018,9 hPa 0,0 l/m 3,0 km/h (1 Bft) S 8,2 C 15,2 C 7,6 km/h (2 Bft)
27.09.2013 15:00 15,7 C 61 % 1018,4 hPa 0,0 l/m 2,5 km/h (1 Bft) NW 8,0 C 15,7 C 6,8 km/h (2 Bft)
27.09.2013 16:00 15,6 C 61 % 1018,1 hPa 0,0 l/m 3,7 km/h (1 Bft) N-NW 8,0 C 15,6 C 7,2 km/h (2 Bft)
27.09.2013 17:00 14,2 C 67 % 1017,9 hPa 0,0 l/m 2,1 km/h (1 Bft) NW 8,1 C 14,2 C 5,2 km/h (1 Bft)
27.09.2013 18:00 11,9 C 80 % 1017,9 hPa 0,0 l/m 0,0 km/h (0 Bft) N 8,6 C 11,9 C 0,0 km/h (0 Bft)
27.09.2013 19:00 9,2 C 89 % 1018,1 hPa 0,0 l/m 0,0 km/h (0 Bft) N 7,5 C 9,2 C 0,4 km/h (0 Bft)
27.09.2013 20:00 7,2 C 92 % 1018,4 hPa 0,0 l/m 0,0 km/h (0 Bft) N 6,1 C 7,2 C 0,4 km/h (0 Bft)
27.09.2013 21:00 6,0 C 94 % 1018,4 hPa 0,0 l/m 0,0 km/h (0 Bft) N 5,1 C 6,0 C 0,0 km/h (0 Bft)
27.09.2013 22:00 4,8 C 94 % 1018,6 hPa 0,0 l/m 0,0 km/h (0 Bft) N 3,9 C 4,8 C 0,0 km/h (0 Bft)
27.09.2013 23:00 4,1 C 94 % 1018,5 hPa 0,0 l/m 0,0 km/h (0 Bft) N 3,3 C 4,1 C 0,0 km/h (0 Bft)
28.09.2013 00:00 3,5 C 95 % 1018,2 hPa 0,0 l/m 0,0 km/h (0 Bft) N 2,8 C 3,5 C 0,0 km/h (0 Bft)
28.09.2013 01:00 2,9 C 95 % 1017,9 hPa 0,0 l/m 0,0 km/h (0 Bft) N 2,1 C 2,9 C 0,0 km/h (0 Bft)
28.09.2013 02:00 2,3 C 95 % 1018,0 hPa 0,0 l/m 0,0 km/h (0 Bft) N 1,6 C 2,3 C 0,0 km/h (0 Bft)
28.09.2013 03:00 1,7 C 95 % 1017,9 hPa 0,0 l/m 0,0 km/h (0 Bft) N 1,0 C 1,7 C 0,0 km/h (0 Bft)
28.09.2013 04:00 1,2 C 95 % 1017,6 hPa 0,0 l/m 0,0 km/h (0 Bft) N 0,5 C 1,2 C 0,0 km/h (0 Bft)
28.09.2013 05:00 0,7 C 96 % 1017,4 hPa 0,2 l/m 0,0 km/h (0 Bft) N 0,1 C 0,7 C 0,0 km/h (0 Bft)
28.09.2013 06:00 0,5 C 96 % 1017,4 hPa 0,0 l/m 0,0 km/h (0 Bft) N -0,1 C 0,5 C 0,0 km/h (0 Bft)
28.09.2013 07:00 0,1 C 96 % 1017,4 hPa 0,0 l/m 0,0 km/h (0 Bft) N -0,5 C 0,1 C 0,0 km/h (0 Bft)
28.09.2013 08:00 1,8 C 96 % 1017,4 hPa 0,0 l/m 0,1 km/h (0 Bft) S-SW 1,2 C 1,8 C 0,2 km/h (0 Bft)
28.09.2013 09:00 5,1 C 96 % 1017,7 hPa 0,0 l/m 0,9 km/h (0 Bft) S-SW 4,5 C 5,1 C 2,3 km/h (1 Bft)
28.09.2013 10:00 9,0 C 96 % 1017,7 hPa 0,0 l/m 0,8 km/h (0 Bft) NO 8,4 C 9,0 C 2,1 km/h (1 Bft)
28.09.2013 11:00 12,3 C 82 % 1017,6 hPa 0,0 l/m 5,9 km/h (2 Bft) N 9,3 C 11,8 C 10,4 km/h (2 Bft)
28.09.2013 12:00 13,8 C 70 % 1017,3 hPa 0,0 l/m 5,2 km/h (1 Bft) O-NO 8,4 C 13,7 C 9,8 km/h (2 Bft)
28.09.2013 13:00 14,7 C 64 % 1017,2 hPa 0,0 l/m 5,5 km/h (2 Bft) N-NW 7,9 C 14,3 C 9,7 km/h (2 Bft)
28.09.2013 14:00 14,8 C 64 % 1016,8 hPa 0,0 l/m 5,6 km/h (2 Bft) NO 8,1 C 14,5 C 10,8 km/h (2 Bft)
28.09.2013 15:00 15,1 C 62 % 1016,3 hPa 0,0 l/m 5,3 km/h (1 Bft) O-NO 7,9 C 15,0 C 9,9 km/h (2 Bft)
28.09.2013 16:00 14,8 C 62 % 1016,1 hPa 0,0 l/m 5,4 km/h (1 Bft) NO 7,5 C 14,7 C 9,9 km/h (2 Bft)
28.09.2013 17:00 14,0 C 65 % 1016,2 hPa 0,0 l/m 4,7 km/h (1 Bft) NO 7,5 C 14,0 C 9,7 km/h (2 Bft)
28.09.2013 18:00 12,3 C 71 % 1016,3 hPa 0,0 l/m 2,2 km/h (1 Bft) O-NO 7,3 C 12,3 C 5,1 km/h (1 Bft)
28.09.2013 19:00 8,8 C 86 % 1016,4 hPa 0,0 l/m 0,8 km/h (0 Bft) NO 6,5 C 8,8 C 1,6 km/h (1 Bft)
28.09.2013 20:00 8,8 C 85 % 1016,6 hPa 0,0 l/m 2,1 km/h (1 Bft) O-NO 6,3 C 8,8 C 4,8 km/h (1 Bft)
28.09.2013 21:00 8,8 C 86 % 1017,0 hPa 0,0 l/m 2,6 km/h (1 Bft) O-NO 6,5 C 8,8 C 6,3 km/h (2 Bft)
28.09.2013 22:00 8,2 C 89 % 1017,3 hPa 0,0 l/m 1,8 km/h (1 Bft) O 6,4 C 8,2 C 4,9 km/h (1 Bft)
28.09.2013 23:00 7,8 C 89 % 1017,6 hPa 0,0 l/m 2,7 km/h (1 Bft) O 6,2 C 7,8 C 6,3 km/h (2 Bft)
29.09.2013 00:00 7,7 C 89 % 1017,8 hPa 0,0 l/m 3,5 km/h (1 Bft) O 5,9 C 7,7 C 8,3 km/h (2 Bft)
29.09.2013 01:00 6,9 C 90 % 1018,0 hPa 0,0 l/m 1,6 km/h (1 Bft) O-NO 5,3 C 6,9 C 5,5 km/h (2 Bft)
29.09.2013 02:00 6,2 C 91 % 1018,1 hPa 0,0 l/m 1,7 km/h (1 Bft) O-NO 4,8 C 6,2 C 4,3 km/h (1 Bft)
29.09.2013 03:00 6,1 C 92 % 1017,8 hPa 0,0 l/m 3,1 km/h (1 Bft) O-NO 4,8 C 6,1 C 7,4 km/h (2 Bft)
29.09.2013 04:00 5,9 C 92 % 1017,7 hPa 0,0 l/m 2,9 km/h (1 Bft) O 4,7 C 5,9 C 6,8 km/h (2 Bft)
29.09.2013 05:00 5,5 C 92 % 1017,6 hPa 0,0 l/m 3,4 km/h (1 Bft) O-NO 4,4 C 5,5 C 8,0 km/h (2 Bft)
29.09.2013 06:00 5,1 C 93 % 1017,5 hPa 0,0 l/m 3,5 km/h (1 Bft) O-NO 4,1 C 5,1 C 7,5 km/h (2 Bft)
29.09.2013 07:00 4,9 C 93 % 1017,7 hPa 0,0 l/m 3,6 km/h (1 Bft) O-NO 3,9 C 4,9 C 7,8 km/h (2 Bft)
29.09.2013 08:00 5,7 C 93 % 1017,9 hPa 0,0 l/m 4,8 km/h (1 Bft) O 4,6 C 5,7 C 10,1 km/h (2 Bft)
29.09.2013 09:00 8,2 C 89 % 1018,0 hPa 0,2 l/m 6,9 km/h (2 Bft) O 6,5 C 7,6 C 14,5 km/h (3 Bft)
29.09.2013 10:00 10,4 C 82 % 1018,2 hPa 0,0 l/m 9,1 km/h (2 Bft) O 7,4 C 8,6 C 18,8 km/h (3 Bft)
29.09.2013 11:00 11,9 C 73 % 1017,8 hPa 0,0 l/m 10,9 km/h (2 Bft) O-NO 7,2 C 9,3 C 22,0 km/h (4 Bft)
29.09.2013 12:00 13,0 C 67 % 1017,6 hPa 0,0 l/m 12,4 km/h (2 Bft) O-SO 6,9 C 9,8 C 24,0 km/h (4 Bft)
29.09.2013 13:00 13,8 C 63 % 1017,3 hPa 0,0 l/m 11,7 km/h (2 Bft) O-NO 6,8 C 11,0 C 23,7 km/h (4 Bft)
29.09.2013 14:00 14,3 C 62 % 1017,0 hPa 0,0 l/m 10,9 km/h (2 Bft) O-SO 7,2 C 12,0 C 22,4 km/h (4 Bft)
29.09.2013 15:00 14,4 C 60 % 1016,6 hPa 0,0 l/m 11,8 km/h (2 Bft) O 6,6 C 11,7 C 24,4 km/h (4 Bft)
29.09.2013 16:00 14,5 C 56 % 1016,3 hPa 0,0 l/m 12,1 km/h (2 Bft) O-NO 5,7 C 11,7 C 24,0 km/h (4 Bft)
29.09.2013 17:00 13,9 C 58 % 1016,2 hPa 0,0 l/m 10,0 km/h (2 Bft) O 5,7 C 12,0 C 20,2 km/h (4 Bft)
29.09.2013 18:00 12,6 C 64 % 1016,2 hPa 0,0 l/m 8,0 km/h (2 Bft) O-NO 5,9 C 11,5 C 16,5 km/h (3 Bft)
29.09.2013 19:00 10,9 C 71 % 1016,2 hPa 0,0 l/m 6,7 km/h (2 Bft) O-NO 5,8 C 10,6 C 13,6 km/h (3 Bft)
29.09.2013 20:00 10,3 C 71 % 1016,4 hPa 0,0 l/m 6,3 km/h (2 Bft) O-NO 5,3 C 10,1 C 13,7 km/h (3 Bft)
29.09.2013 21:00 8,7 C 79 % 1016,7 hPa 0,0 l/m 4,3 km/h (1 Bft) O-NO 5,1 C 8,7 C 9,3 km/h (2 Bft)
29.09.2013 22:00 7,8 C 82 % 1017,0 hPa 0,0 l/m 3,8 km/h (1 Bft) O-NO 5,0 C 7,8 C 8,0 km/h (2 Bft)
29.09.2013 23:00 6,8 C 86 % 1017,1 hPa 0,0 l/m 2,9 km/h (1 Bft) NO 4,6 C 6,8 C 7,6 km/h (2 Bft)
Min-Datum _ 27.09.13 29.09.13 26.09.13 - 24.09.13 - 27.09.13 27.09.13 24.09.13
_ Min-Zeit 06:15 16:35 05:50 - 03:00 - 06:15 06:15 20:25
Minimum _ -0,4 C 53 % 1007,6 hPa - 0,0 km/h (0 Bft) - -1,0 C -0,4 C 0,0 km/h (0 Bft)
Max-Datum _ 23.09.13 27.09.13 23.09.13 26.09.13 26.09.13 - 23.09.13 23.09.13 26.09.13
_ Max-Zeit 14:20 09:25 00:15 06:35 08:30 - 14:20 14:25 08:30
Maximum _ 17,1 C 97 % 1022,9 hPa 3,0 l/m 19,3 km/h
N (3 Bft)
- 14,6 C 17,1 C 32,2 km/h
N-NO (5 Bft)
Durchschnitt _ 10,6 C 88 % 1016,9 hPa #6,4 l/m 3,2 km/h (1 Bft) O 8,5 C 10,4 C 7,3 km/h (2 Bft)